createdAt,value
2019-05-22T00:02:35.115Z,60.34
2019-05-22T00:05:15.494Z,60.27
2019-05-22T00:07:49.100Z,60.12
2019-05-22T00:10:24.598Z,60.00
2019-05-22T00:12:55.276Z,59.94
2019-05-22T00:15:25.147Z,59.98
2019-05-22T00:17:56.984Z,59.87
2019-05-22T00:20:28.467Z,59.71
2019-05-22T00:23:00.035Z,59.66
2019-05-22T00:25:33.282Z,59.65
2019-05-22T00:28:04.860Z,59.63
2019-05-22T00:30:36.518Z,59.68
2019-05-22T00:33:08.174Z,59.77
2019-05-22T00:35:38.633Z,59.88
2019-05-22T00:38:10.084Z,59.81
2019-05-22T00:40:51.840Z,59.93
2019-05-22T00:43:30.287Z,60.10
2019-05-22T00:46:05.163Z,61.06
2019-05-22T00:48:36.954Z,61.60
2019-05-22T00:51:28.446Z,61.72
2019-05-22T00:54:00.175Z,61.60
2019-05-22T00:56:41.583Z,62.09
2019-05-22T00:59:14.733Z,62.13
2019-05-22T01:01:45.834Z,62.27
2019-05-22T01:04:17.635Z,62.25
2019-05-22T01:06:48.697Z,62.17
2019-05-22T01:09:38.607Z,62.01
2019-05-22T01:12:19.577Z,61.80
2019-05-22T01:14:53.349Z,61.46
2019-05-22T01:17:24.235Z,61.65
2019-05-22T01:19:54.905Z,61.78
2019-05-22T01:22:28.712Z,61.68
2019-05-22T01:25:00.744Z,61.88
2019-05-22T01:27:32.688Z,61.83
2019-05-22T01:30:04.360Z,61.84
2019-05-22T01:32:45.274Z,62.28
2019-05-22T01:35:16.703Z,62.45
2019-05-22T01:37:47.188Z,62.53
2019-05-22T01:40:33.141Z,62.67
2019-05-22T01:43:04.454Z,63.25
2019-05-22T01:45:34.144Z,63.57
2019-05-22T01:48:08.907Z,63.74
2019-05-22T01:50:49.053Z,64.02
2019-05-22T01:53:24.036Z,64.11
2019-05-22T01:55:58.651Z,63.81
2019-05-22T01:58:31.213Z,63.75
2019-05-22T02:01:03.160Z,63.74
2019-05-22T02:03:34.288Z,63.11
2019-05-22T02:06:06.266Z,62.64
2019-05-22T02:08:41.673Z,62.19
2019-05-22T02:11:16.363Z,62.09
2019-05-22T02:13:50.550Z,62.05
2019-05-22T02:16:21.558Z,62.16
2019-05-22T02:18:52.578Z,62.00
2019-05-22T02:21:23.896Z,62.02
2019-05-22T02:23:56.280Z,61.87
2019-05-22T02:26:26.354Z,61.83
2019-05-22T02:28:57.309Z,61.52
2019-05-22T02:31:29.374Z,61.47
2019-05-22T02:34:04.953Z,61.43
2019-05-22T02:36:37.298Z,61.41
2019-05-22T02:39:15.702Z,61.36
2019-05-22T02:41:56.778Z,61.32
2019-05-22T02:44:28.848Z,61.60
2019-05-22T02:47:18.290Z,61.61
2019-05-22T02:49:36.051Z,61.76
2019-05-22T02:52:07.660Z,61.89
2019-05-22T02:54:38.701Z,61.82
2019-05-22T02:57:10.607Z,61.95
2019-05-22T02:59:42.333Z,62.19
2019-05-22T03:02:14.436Z,61.97
2019-05-22T03:05:09.653Z,62.20
2019-05-22T03:07:42.013Z,62.33
2019-05-22T03:10:13.586Z,62.19
2019-05-22T03:12:45.621Z,62.21
2019-05-22T03:15:19.247Z,62.37
2019-05-22T03:17:53.493Z,62.47
2019-05-22T03:20:26.676Z,62.93
2019-05-22T03:23:01.259Z,63.47
2019-05-22T03:25:33.540Z,63.83
2019-05-22T03:28:05.865Z,64.36
2019-05-22T03:30:40.080Z,63.97
2019-05-22T03:33:10.355Z,64.31
2019-05-22T03:35:47.844Z,64.73
2019-05-22T03:38:20.533Z,65.35
2019-05-22T03:40:52.404Z,65.61
2019-05-22T03:43:28.344Z,65.69
2019-05-22T03:46:02.911Z,65.87
2019-05-22T03:48:38.055Z,65.45
2019-05-22T03:51:15.098Z,65.04
2019-05-22T03:53:46.330Z,64.91
2019-05-22T03:56:17.638Z,65.13
2019-05-22T03:58:47.840Z,64.77
2019-05-22T04:01:19.635Z,64.67
2019-05-22T04:03:51.722Z,64.92
2019-05-22T04:06:23.590Z,64.56
2019-05-22T04:08:56.723Z,64.37
2019-05-22T04:11:34.254Z,64.25
2019-05-22T04:14:04.930Z,64.64
2019-05-22T04:16:35.632Z,64.54
2019-05-22T04:19:06.711Z,64.27
2019-05-22T04:21:36.488Z,63.98
2019-05-22T04:24:06.460Z,63.56
2019-05-22T04:26:36.614Z,63.35
2019-05-22T04:29:08.350Z,62.22
2019-05-22T04:31:54.226Z,62.26
2019-05-22T04:34:24.398Z,62.64
2019-05-22T04:36:54.076Z,62.54
2019-05-22T04:39:27.421Z,62.18
2019-05-22T04:41:59.006Z,61.97
2019-05-22T04:44:29.400Z,61.41
2019-05-22T04:47:00.535Z,61.28
2019-05-22T04:49:30.144Z,61.26
2019-05-22T04:51:59.823Z,61.17
2019-05-22T04:54:29.811Z,60.65
2019-05-22T04:57:00.241Z,60.86
2019-05-22T04:59:31.229Z,60.76
2019-05-22T05:02:01.738Z,60.42
2019-05-22T05:04:31.873Z,60.44
2019-05-22T05:07:02.949Z,59.67
2019-05-22T05:09:33.182Z,59.67
2019-05-22T05:12:03.102Z,59.94
2019-05-22T05:14:32.983Z,59.86
2019-05-22T05:17:02.989Z,59.51
2019-05-22T05:19:33.068Z,59.53
2019-05-22T05:22:02.671Z,59.58
2019-05-22T05:24:32.647Z,59.16
2019-05-22T05:27:03.141Z,59.17
2019-05-22T05:29:34.600Z,59.25
2019-05-22T05:32:06.122Z,59.21
2019-05-22T05:34:40.708Z,58.87
2019-05-22T05:37:12.767Z,58.98
2019-05-22T05:40:04.560Z,58.76
2019-05-22T05:42:34.515Z,58.34
2019-05-22T05:45:06.268Z,58.57
2019-05-22T05:47:38.196Z,58.59
2019-05-22T05:50:12.975Z,58.60
2019-05-22T05:52:42.915Z,58.26
2019-05-22T05:55:13.338Z,58.35
2019-05-22T05:57:50.182Z,58.36
2019-05-22T06:00:28.447Z,58.45
2019-05-22T06:03:35.944Z,58.34
2019-05-22T06:06:30.201Z,58.40
2019-05-22T06:09:02.220Z,58.79
2019-05-22T06:11:46.527Z,58.89
2019-05-22T06:14:28.319Z,59.01
2019-05-22T06:17:23.864Z,58.53
2019-05-22T06:19:59.747Z,58.31
2019-05-22T06:22:29.638Z,58.17
2019-05-22T06:25:02.241Z,57.93
2019-05-22T06:27:35.849Z,57.81
2019-05-22T06:30:08.312Z,57.65
2019-05-22T06:33:07.302Z,57.45
2019-05-22T06:35:39.347Z,57.43
2019-05-22T06:38:48.905Z,57.13
2019-05-22T06:41:20.281Z,57.25
2019-05-22T06:44:29.191Z,56.68
2019-05-22T06:47:00.038Z,56.75
2019-05-22T06:49:38.937Z,56.91
2019-05-22T06:52:09.781Z,57.42
2019-05-22T06:54:40.262Z,58.12
2019-05-22T06:57:16.057Z,58.91
2019-05-22T06:59:47.686Z,59.67
2019-05-22T07:02:17.937Z,59.74
2019-05-22T07:04:48.662Z,59.03
2019-05-22T07:07:20.057Z,58.45
2019-05-22T07:09:50.804Z,57.90
2019-05-22T07:12:20.809Z,57.26
2019-05-22T07:15:11.802Z,56.96
2019-05-22T07:17:42.055Z,56.23
2019-05-22T07:20:13.281Z,56.03
2019-05-22T07:22:44.352Z,55.42
2019-05-22T07:25:15.697Z,55.24
2019-05-22T07:27:46.813Z,55.03
2019-05-22T07:30:17.171Z,54.90
2019-05-22T07:32:47.518Z,54.46
2019-05-22T07:35:18.297Z,53.52
2019-05-22T07:37:49.648Z,53.14
2019-05-22T07:40:20.566Z,52.17
2019-05-22T07:42:52.531Z,52.38
2019-05-22T07:45:27.134Z,52.66
2019-05-22T07:48:00.588Z,52.61
2019-05-22T07:50:32.685Z,53.20
2019-05-22T07:53:04.265Z,53.13
2019-05-22T07:55:35.368Z,53.17
2019-05-22T07:58:12.632Z,53.28
2019-05-22T08:00:54.625Z,53.62
2019-05-22T08:03:25.637Z,53.72
2019-05-22T08:05:58.643Z,52.52
2019-05-22T08:08:31.774Z,51.95
2019-05-22T08:11:01.983Z,51.73
2019-05-22T08:13:33.407Z,52.02
2019-05-22T08:16:04.479Z,52.36
2019-05-22T08:18:36.139Z,52.93
2019-05-22T08:21:07.070Z,53.27
2019-05-22T08:23:37.766Z,53.93
2019-05-22T08:26:10.956Z,54.36
2019-05-22T08:28:41.694Z,54.54
2019-05-22T08:31:13.305Z,54.48
2019-05-22T08:33:43.079Z,54.25
2019-05-22T08:36:12.945Z,54.00
2019-05-22T08:38:45.039Z,54.25
2019-05-22T08:41:19.081Z,54.13
2019-05-22T08:44:13.895Z,54.19
2019-05-22T08:46:20.965Z,54.44
2019-05-22T08:48:51.945Z,54.80
2019-05-22T08:51:21.854Z,54.64
2019-05-22T08:53:54.028Z,54.27
2019-05-22T08:56:25.462Z,54.21
2019-05-22T08:58:55.285Z,54.30
2019-05-22T09:01:25.211Z,54.08
2019-05-22T09:03:55.017Z,53.45
2019-05-22T09:06:24.840Z,53.10
2019-05-22T09:08:54.539Z,52.94
2019-05-22T09:11:24.164Z,52.82
2019-05-22T09:13:53.969Z,52.42
2019-05-22T09:16:24.533Z,52.04
2019-05-22T09:18:54.360Z,52.46
2019-05-22T09:21:25.178Z,51.88
2019-05-22T09:23:55.994Z,51.69
2019-05-22T09:26:26.221Z,51.81
2019-05-22T09:28:55.871Z,52.01
2019-05-22T09:31:25.730Z,52.12
2019-05-22T09:33:55.629Z,51.81
2019-05-22T09:36:25.668Z,51.71
2019-05-22T09:38:55.623Z,51.48
2019-05-22T09:41:25.600Z,51.50
2019-05-22T09:43:55.394Z,50.48
2019-05-22T09:46:25.847Z,49.42
2019-05-22T09:48:56.855Z,49.04
2019-05-22T09:51:26.771Z,49.21
2019-05-22T09:53:56.937Z,49.26
2019-05-22T09:56:28.871Z,49.24
2019-05-22T09:58:58.820Z,49.07
2019-05-22T10:01:28.605Z,48.95
2019-05-22T10:03:59.981Z,48.81
2019-05-22T10:06:29.880Z,49.16
2019-05-22T10:08:59.473Z,49.10
2019-05-22T10:11:30.625Z,49.22
2019-05-22T10:14:00.644Z,49.41
2019-05-22T10:16:30.978Z,49.35
2019-05-22T10:19:01.110Z,49.58
2019-05-22T10:21:31.556Z,49.67
2019-05-22T10:24:01.238Z,49.92
2019-05-22T10:26:31.479Z,49.96
2019-05-22T10:29:01.306Z,50.21
2019-05-22T10:31:31.348Z,50.69
2019-05-22T10:34:01.589Z,50.77
2019-05-22T10:36:31.583Z,50.74
2019-05-22T10:39:01.634Z,50.10
2019-05-22T10:41:31.423Z,49.77
2019-05-22T10:44:02.418Z,49.68
2019-05-22T10:46:32.639Z,50.20
2019-05-22T10:49:02.541Z,50.51
2019-05-22T10:51:32.200Z,51.25
2019-05-22T10:54:01.981Z,51.37
2019-05-22T10:56:31.973Z,50.82
2019-05-22T10:59:01.904Z,50.79
2019-05-22T11:01:32.064Z,51.22
2019-05-22T11:04:02.731Z,50.94
2019-05-22T11:06:32.787Z,51.05
2019-05-22T11:09:03.935Z,50.42
2019-05-22T11:11:41.269Z,49.64
2019-05-22T11:14:11.439Z,48.76
2019-05-22T11:16:44.116Z,48.25
2019-05-22T11:19:13.953Z,48.95
2019-05-22T11:21:44.396Z,49.46
2019-05-22T11:24:15.115Z,50.01
2019-05-22T11:26:45.966Z,50.12
2019-05-22T11:29:16.200Z,50.28
2019-05-22T11:31:46.635Z,50.61
2019-05-22T11:34:16.497Z,51.06
2019-05-22T11:36:46.417Z,50.90
2019-05-22T11:39:17.778Z,49.69
2019-05-22T11:41:47.782Z,49.01
2019-05-22T11:44:17.813Z,48.81
2019-05-22T11:46:48.396Z,49.38
2019-05-22T11:49:18.399Z,49.81
2019-05-22T11:51:51.335Z,50.41
2019-05-22T11:54:21.858Z,49.51
2019-05-22T11:56:51.714Z,48.28
2019-05-22T11:59:22.903Z,48.53
2019-05-22T12:01:52.901Z,49.28
2019-05-22T12:04:24.220Z,48.70
2019-05-22T12:06:54.794Z,48.49
2019-05-22T12:09:27.215Z,48.56
2019-05-22T12:11:57.990Z,48.69
2019-05-22T12:14:28.538Z,48.12
2019-05-22T12:16:59.136Z,48.38
2019-05-22T12:19:29.693Z,48.79
2019-05-22T12:21:59.504Z,49.36
2019-05-22T12:24:36.578Z,49.55
2019-05-22T12:27:01.875Z,50.11
2019-05-22T12:29:32.033Z,50.55
2019-05-22T12:32:02.152Z,50.25
2019-05-22T12:34:31.992Z,50.34
2019-05-22T12:37:02.115Z,50.41
2019-05-22T12:39:32.096Z,50.85
2019-05-22T12:42:02.846Z,51.44
2019-05-22T12:44:33.578Z,51.94
2019-05-22T12:47:05.312Z,51.87
2019-05-22T12:49:42.118Z,51.18
2019-05-22T12:52:12.919Z,50.88
2019-05-22T12:54:48.323Z,51.51
2019-05-22T12:57:17.133Z,51.90
2019-05-22T12:59:47.746Z,52.05
2019-05-22T13:02:19.519Z,52.03
2019-05-22T13:04:50.438Z,51.46
2019-05-22T13:07:20.411Z,50.02
2019-05-22T13:09:50.286Z,49.73
2019-05-22T13:12:23.598Z,49.54
2019-05-22T13:15:08.350Z,48.87
2019-05-22T13:17:25.920Z,48.37
2019-05-22T13:19:57.258Z,48.71
2019-05-22T13:22:27.585Z,49.62
2019-05-22T13:24:58.081Z,50.31
2019-05-22T13:27:29.398Z,50.61
2019-05-22T13:30:02.177Z,50.68
2019-05-22T13:32:33.103Z,50.72
2019-05-22T13:35:06.027Z,50.61
2019-05-22T13:37:36.727Z,51.08
2019-05-22T13:40:26.040Z,51.40
2019-05-22T13:42:41.237Z,51.57
2019-05-22T13:45:28.359Z,51.74
2019-05-22T13:47:46.004Z,51.41
2019-05-22T13:50:19.058Z,51.20
2019-05-22T13:52:50.181Z,51.06
2019-05-22T13:55:21.570Z,51.18
2019-05-22T13:57:52.540Z,51.54
2019-05-22T14:00:25.264Z,51.38
2019-05-22T14:02:55.709Z,51.48
2019-05-22T14:05:27.648Z,51.06
2019-05-22T14:07:57.691Z,50.86
2019-05-22T14:10:28.932Z,51.30
2019-05-22T14:12:59.133Z,51.67
2019-05-22T14:15:48.283Z,51.90
2019-05-22T14:18:02.916Z,51.97
2019-05-22T14:20:32.919Z,52.19
2019-05-22T14:23:03.061Z,52.74
2019-05-22T14:25:34.233Z,52.45
2019-05-22T14:28:05.665Z,52.22
2019-05-22T14:30:35.992Z,51.62
2019-05-22T14:33:06.301Z,50.74
2019-05-22T14:35:48.414Z,49.66
2019-05-22T14:38:27.539Z,48.26
2019-05-22T14:40:58.311Z,47.57
2019-05-22T14:43:29.328Z,46.60
2019-05-22T14:45:59.661Z,46.70
2019-05-22T14:48:30.087Z,46.88
2019-05-22T14:51:00.988Z,47.37
2019-05-22T14:53:36.648Z,47.52
2019-05-22T14:56:12.642Z,47.77
2019-05-22T14:58:44.563Z,47.63
2019-05-22T15:01:14.710Z,47.67
2019-05-22T15:03:45.175Z,47.32
2019-05-22T15:06:15.898Z,47.61
2019-05-22T15:08:45.521Z,47.80
2019-05-22T15:11:17.508Z,47.52
2019-05-22T15:13:47.816Z,47.40
2019-05-22T15:16:18.187Z,47.08
2019-05-22T15:18:47.967Z,46.53
2019-05-22T15:21:19.262Z,47.21
2019-05-22T15:23:51.174Z,46.21
2019-05-22T15:26:21.059Z,45.87
2019-05-22T15:28:51.308Z,45.89
2019-05-22T15:31:21.093Z,45.39
2019-05-22T15:33:51.452Z,44.90
2019-05-22T15:36:24.667Z,44.48
2019-05-22T15:38:56.741Z,45.00
2019-05-22T15:41:29.301Z,45.02
2019-05-22T15:44:00.533Z,44.81
2019-05-22T15:46:32.979Z,44.81
2019-05-22T15:49:07.360Z,45.10
2019-05-22T15:51:39.047Z,45.41
2019-05-22T15:54:13.700Z,45.66
2019-05-22T15:56:44.235Z,45.47
2019-05-22T15:59:15.089Z,45.78
2019-05-22T16:01:47.264Z,45.93
2019-05-22T16:04:18.369Z,46.16
2019-05-22T16:06:49.500Z,46.78
2019-05-22T16:09:20.929Z,47.26
2019-05-22T16:11:54.858Z,47.51
2019-05-22T16:14:27.710Z,48.10
2019-05-22T16:16:59.451Z,48.11
2019-05-22T16:19:31.869Z,47.98
2019-05-22T16:22:06.699Z,47.63
2019-05-22T16:24:40.292Z,47.68
2019-05-22T16:27:12.777Z,47.90
2019-05-22T16:29:43.919Z,47.51
2019-05-22T16:32:16.257Z,47.93
2019-05-22T16:34:46.567Z,47.47
2019-05-22T16:37:17.591Z,47.61
2019-05-22T16:39:50.266Z,46.62
2019-05-22T16:42:20.700Z,46.53
2019-05-22T16:44:50.374Z,46.58
2019-05-22T16:47:22.873Z,46.53
2019-05-22T16:49:53.902Z,46.52
2019-05-22T16:52:28.522Z,46.73
2019-05-22T16:54:58.914Z,46.87
2019-05-22T16:57:32.067Z,46.78
2019-05-22T17:00:02.492Z,46.91
2019-05-22T17:02:37.750Z,46.90
2019-05-22T17:05:11.130Z,47.11
2019-05-22T17:07:44.006Z,47.33
2019-05-22T17:10:16.491Z,47.38
2019-05-22T17:12:48.955Z,47.41
2019-05-22T17:15:21.351Z,47.75
2019-05-22T17:17:51.214Z,47.98
2019-05-22T17:20:23.497Z,47.67
2019-05-22T17:22:53.720Z,47.77
2019-05-22T17:25:23.916Z,47.70
2019-05-22T17:27:53.503Z,47.61
2019-05-22T17:30:25.743Z,47.71
2019-05-22T17:32:56.728Z,47.29
2019-05-22T17:35:26.824Z,46.99
2019-05-22T17:37:58.401Z,47.24
2019-05-22T17:40:28.316Z,47.11
2019-05-22T17:42:59.284Z,47.19
2019-05-22T17:45:30.959Z,47.24
2019-05-22T17:48:02.510Z,47.26
2019-05-22T17:50:35.886Z,47.46
2019-05-22T17:53:07.009Z,47.72
2019-05-22T17:55:38.441Z,47.85
2019-05-22T17:58:08.870Z,47.52
2019-05-22T18:00:40.180Z,46.91
2019-05-22T18:03:10.226Z,47.05
2019-05-22T18:05:41.175Z,47.11
2019-05-22T18:08:12.261Z,47.19
2019-05-22T18:10:44.349Z,47.17
2019-05-22T18:13:15.207Z,47.28
2019-05-22T18:15:46.517Z,47.51
2019-05-22T18:18:17.625Z,47.66
2019-05-22T18:20:47.934Z,48.07
2019-05-22T18:23:17.765Z,48.12
2019-05-22T18:25:47.465Z,48.37
2019-05-22T18:28:17.210Z,48.58
2019-05-22T18:30:47.139Z,48.97
2019-05-22T18:33:17.434Z,48.44
2019-05-22T18:35:47.535Z,48.51
2019-05-22T18:38:17.160Z,48.70
2019-05-22T18:40:47.234Z,48.89
2019-05-22T18:43:18.973Z,49.16
2019-05-22T18:45:48.827Z,49.23
2019-05-22T18:48:20.208Z,49.45
2019-05-22T18:50:50.574Z,49.47
2019-05-22T18:53:20.462Z,49.57
2019-05-22T18:55:50.102Z,49.60
2019-05-22T18:58:19.770Z,49.38
2019-05-22T19:00:49.509Z,49.37
2019-05-22T19:03:19.113Z,49.08
2019-05-22T19:05:49.032Z,49.41
2019-05-22T19:08:19.004Z,49.50
2019-05-22T19:10:49.051Z,49.77
2019-05-22T19:13:18.884Z,50.20
2019-05-22T19:15:49.459Z,50.43
2019-05-22T19:18:19.121Z,50.84
2019-05-22T19:20:48.732Z,51.19
2019-05-22T19:23:18.599Z,51.54
2019-05-22T19:25:48.262Z,51.84
2019-05-22T19:28:18.086Z,51.98
2019-05-22T19:30:47.712Z,52.20
2019-05-22T19:33:18.620Z,52.24
2019-05-22T19:35:48.744Z,52.51
2019-05-22T19:38:18.507Z,52.53
2019-05-22T19:40:48.575Z,52.76
2019-05-22T19:43:18.279Z,52.79
2019-05-22T19:45:48.993Z,52.92
2019-05-22T19:48:19.295Z,53.12
2019-05-22T19:50:50.598Z,53.28
2019-05-22T19:53:22.457Z,53.29
2019-05-22T19:55:59.276Z,53.24
2019-05-22T19:58:29.621Z,52.88
2019-05-22T20:00:59.990Z,52.81
2019-05-22T20:03:30.267Z,52.84
2019-05-22T20:05:59.947Z,52.93
2019-05-22T20:08:29.656Z,53.01
2019-05-22T20:10:59.247Z,53.09
2019-05-22T20:13:29.081Z,52.94
2019-05-22T20:15:58.756Z,52.87
2019-05-22T20:18:28.850Z,53.01
2019-05-22T20:20:58.601Z,52.86
2019-05-22T20:23:36.029Z,52.95
2019-05-22T20:26:01.170Z,53.07
2019-05-22T20:28:31.827Z,52.81
2019-05-22T20:31:01.428Z,52.71
2019-05-22T20:33:31.116Z,52.70
2019-05-22T20:36:01.183Z,53.00
2019-05-22T20:38:31.265Z,53.10
2019-05-22T20:41:01.312Z,53.07
2019-05-22T20:43:31.896Z,52.98
2019-05-22T20:46:02.325Z,53.16
2019-05-22T20:48:33.207Z,53.24
2019-05-22T20:51:04.442Z,53.39
2019-05-22T20:53:52.332Z,53.05
2019-05-22T20:56:10.440Z,53.16
2019-05-22T20:58:40.965Z,53.16
2019-05-22T21:01:12.715Z,53.35
2019-05-22T21:03:44.020Z,53.47
2019-05-22T21:06:16.499Z,53.66
2019-05-22T21:08:47.430Z,53.89
2019-05-22T21:11:20.704Z,54.12
2019-05-22T21:13:50.500Z,54.34
2019-05-22T21:16:23.546Z,54.44
2019-05-22T21:18:55.000Z,54.63
2019-05-22T21:21:26.024Z,54.81
2019-05-22T21:24:09.351Z,54.84
2019-05-22T21:26:27.461Z,55.04
2019-05-22T21:28:57.790Z,55.23
2019-05-22T21:31:29.090Z,55.49
2019-05-22T21:33:58.898Z,55.43
2019-05-22T21:36:29.857Z,55.28
2019-05-22T21:39:00.511Z,55.20
2019-05-22T21:41:30.483Z,54.98
2019-05-22T21:44:00.613Z,55.03
2019-05-22T21:46:30.554Z,54.80
2019-05-22T21:49:00.339Z,54.82
2019-05-22T21:51:30.569Z,54.79
2019-05-22T21:54:00.377Z,54.61
2019-05-22T21:56:31.330Z,54.58
2019-05-22T21:59:01.273Z,54.53
2019-05-22T22:01:33.035Z,54.48
2019-05-22T22:04:04.700Z,54.33
2019-05-22T22:06:34.769Z,54.51
2019-05-22T22:09:07.715Z,54.44
2019-05-22T22:11:38.606Z,54.48
2019-05-22T22:14:09.022Z,54.44
2019-05-22T22:16:40.757Z,54.62
2019-05-22T22:19:11.652Z,54.78
2019-05-22T22:21:41.642Z,54.82
2019-05-22T22:24:11.847Z,54.99
2019-05-22T22:26:42.119Z,55.15
2019-05-22T22:29:12.633Z,55.37
2019-05-22T22:31:44.041Z,55.41
2019-05-22T22:34:18.719Z,55.64
2019-05-22T22:36:49.445Z,55.90
2019-05-22T22:39:21.622Z,56.00
2019-05-22T22:41:53.595Z,56.12
2019-05-22T22:44:23.253Z,56.12
2019-05-22T22:46:57.723Z,56.21
2019-05-22T22:49:28.194Z,56.34
2019-05-22T22:51:59.118Z,56.39
2019-05-22T22:54:30.732Z,56.55
2019-05-22T22:57:00.435Z,56.84
2019-05-22T22:59:31.080Z,57.03
2019-05-22T23:02:03.961Z,57.19
2019-05-22T23:04:35.187Z,57.42
2019-05-22T23:07:06.018Z,57.58
2019-05-22T23:09:39.091Z,57.92
2019-05-22T23:12:09.957Z,58.15
2019-05-22T23:14:44.712Z,58.42
2019-05-22T23:17:14.566Z,58.73
2019-05-22T23:19:43.155Z,59.03
2019-05-22T23:22:12.769Z,59.27
2019-05-22T23:24:43.660Z,59.67
2019-05-22T23:27:13.648Z,60.13
2019-05-22T23:29:44.874Z,60.38
2019-05-22T23:32:15.642Z,60.57
2019-05-22T23:34:47.345Z,60.88
2019-05-22T23:37:20.353Z,61.10
2019-05-22T23:39:53.098Z,61.46
2019-05-22T23:42:29.073Z,61.73
2019-05-22T23:45:02.803Z,62.05
2019-05-22T23:47:32.774Z,62.31
2019-05-22T23:50:03.810Z,62.58
2019-05-22T23:52:33.885Z,62.87
2019-05-22T23:55:04.734Z,63.02
2019-05-22T23:57:35.243Z,63.15
